PAPH Airport (Port Heiden) Information

FAA: PTH - ICAO: PAPH

PAPH Airport Location

State Alaska
County Lake And Peninsula
City Port Heiden
PAPH Airport is 6 miles northeast of Port Heiden, AK.
Latitude 56-57-32.7640N
Longitude 158-38-00.1030W
Elevation 95ft

PAPH Airport METARs

METAR PAPH 020156Z AUTO 06008KT 10SM FEW060 M01/M03 A2962 RMK AO2 SLP030 T10111028 FZRANO
Altimeter 29.62"
Temperature -1.1°C (30.0°F)
Wind 60° at 8KT
Clouds few at 6,000ft
Visibility 10.0mi
Time observed: 2023-02-02T01:56:00Z

PAPH Airport Details

Status Operational
Activation January 1949
Ownership Public
Usage Public
Chart KODIAK
ATC on-site No
Beacon schedule sunset-sunrise
Beacon color clear green

PAPH Airport Contacts

Owner ALASKA DOT&PF SOUTHCOAST REGION
Owner address PO BOX 196900, ANCHORAGE, AK 99519-6900
Owner phone 907-269-0748
Manager JOHN VINDUSKA
Manager address 15605 E. HELMAUR PLACE, PALMER, AK 99645
Manager phone 907-745-4054

PAPH Airport (Port Heiden) Radio Frequencies

PAPH (Airport) Radio Frequencies

UNICOM N/A
Common traffic advisory frequency (CTAF) 122.8